Time,TemperatureF,DewpointF,PressureIn,WindDirection,WindDirectionDegrees,WindSpeedMPH,WindSpeedGustMPH,Humidity,HourlyPrecipIn,Conditions,Clouds,dailyrainin,SolarRadiationWatts/m^2,SoftwareType,DateUTC
2013-08-20 00:11:00,65.0,23.0,-100.00,SW,222,10.0,15.0,20,0.00,,,0.00,0.000000,,2013-08-20 06:11:00,
2013-08-20 00:21:00,65.0,23.0,-100.00,SW,222,10.0,15.0,20,0.00,,,0.00,0.000000,,2013-08-20 06:21:00,
2013-08-20 00:31:00,65.0,23.0,-100.00,SW,222,10.0,15.0,20,0.00,,,0.00,0.000000,,2013-08-20 06:31:00,
2013-08-20 00:40:00,63.0,24.0,-100.00,SSW,198,8.0,14.0,22,0.00,,,0.00,0.000000,,2013-08-20 06:40:00,
2013-08-20 01:11:00,63.0,24.0,-100.00,SSW,198,8.0,14.0,22,0.00,,,0.00,0.000000,,2013-08-20 07:11:00,
2013-08-20 01:22:00,63.0,24.0,-100.00,SSW,198,8.0,14.0,22,0.00,,,0.00,0.000000,,2013-08-20 07:22:00,
2013-08-20 01:31:00,63.0,24.0,-100.00,SSW,198,8.0,14.0,22,0.00,,,0.00,0.000000,,2013-08-20 07:31:00,
2013-08-20 01:40:00,66.0,29.0,-100.00,WSW,251,10.0,21.0,25,0.00,,,0.00,0.000000,,2013-08-20 07:40:00,
2013-08-20 02:11:00,66.0,29.0,-100.00,WSW,251,10.0,21.0,25,0.00,,,0.00,0.000000,,2013-08-20 08:11:00,
2013-08-20 02:21:00,66.0,29.0,-100.00,WSW,251,10.0,21.0,25,0.00,,,0.00,0.000000,,2013-08-20 08:21:00,
2013-08-20 02:31:00,66.0,29.0,-100.00,WSW,251,10.0,21.0,25,0.00,,,0.00,0.000000,,2013-08-20 08:31:00,
2013-08-20 02:40:00,64.0,29.0,-100.00,SW,219,8.0,18.0,27,0.00,,,0.00,0.000000,,2013-08-20 08:40:00,
2013-08-20 03:11:00,64.0,29.0,-100.00,SW,219,8.0,18.0,27,0.00,,,0.00,0.000000,,2013-08-20 09:11:00,
2013-08-20 03:21:00,64.0,29.0,-100.00,SW,219,8.0,18.0,27,0.00,,,0.00,0.000000,,2013-08-20 09:21:00,
2013-08-20 03:33:00,64.0,29.0,-100.00,SW,219,8.0,18.0,27,0.00,,,0.00,0.000000,,2013-08-20 09:33:00,
2013-08-20 03:40:00,66.0,31.0,-100.00,SW,232,10.0,20.0,27,0.00,,,0.00,0.000000,,2013-08-20 09:40:00,
2013-08-20 04:12:00,66.0,31.0,-100.00,SW,232,10.0,20.0,27,0.00,,,0.00,0.000000,,2013-08-20 10:12:00,
2013-08-20 04:22:00,66.0,31.0,-100.00,SW,232,10.0,20.0,27,0.00,,,0.00,0.000000,,2013-08-20 10:22:00,
2013-08-20 04:32:00,66.0,31.0,-100.00,SW,232,10.0,20.0,27,0.00,,,0.00,0.000000,,2013-08-20 10:32:00,
2013-08-20 04:40:00,65.0,32.0,-100.00,WSW,243,7.0,25.0,29,0.00,,,0.00,0.000000,,2013-08-20 10:40:00,
2013-08-20 05:11:00,65.0,32.0,-100.00,WSW,243,7.0,25.0,29,0.00,,,0.00,0.000000,,2013-08-20 11:11:00,
2013-08-20 05:21:00,65.0,32.0,-100.00,WSW,243,7.0,25.0,29,0.00,,,0.00,0.000000,,2013-08-20 11:21:00,
2013-08-20 05:32:00,65.0,32.0,-100.00,WSW,243,7.0,25.0,29,0.00,,,0.00,0.000000,,2013-08-20 11:32:00,
2013-08-20 05:40:00,62.0,32.0,-100.00,WSW,243,2.0,8.0,32,0.00,,,0.00,0.000000,,2013-08-20 11:40:00,
2013-08-20 06:12:00,62.0,32.0,-100.00,WSW,243,2.0,8.0,32,0.00,,,0.00,0.000000,,2013-08-20 12:12:00,
2013-08-20 06:21:00,62.0,32.0,-100.00,WSW,243,2.0,8.0,32,0.00,,,0.00,0.000000,,2013-08-20 12:21:00,
2013-08-20 06:31:00,62.0,32.0,-100.00,WSW,243,2.0,8.0,32,0.00,,,0.00,0.000000,,2013-08-20 12:31:00,
2013-08-20 06:40:00,65.0,33.0,-100.00,SW,235,8.0,14.0,30,0.00,,,0.00,1.000000,,2013-08-20 12:40:00,
2013-08-20 07:11:00,65.0,33.0,-100.00,SW,235,8.0,14.0,30,0.00,,,0.00,1.000000,,2013-08-20 13:11:00,
2013-08-20 07:21:00,65.0,33.0,-100.00,SW,235,8.0,14.0,30,0.00,,,0.00,1.000000,,2013-08-20 13:21:00,
2013-08-20 07:32:00,65.0,33.0,-100.00,SW,235,8.0,14.0,30,0.00,,,0.00,1.000000,,2013-08-20 13:32:00,
2013-08-20 07:40:00,61.0,27.0,-100.00,NW,306,1.0,14.0,27,0.00,,,0.00,41.000000,,2013-08-20 13:40:00,
2013-08-20 08:11:00,61.0,27.0,-100.00,NW,306,1.0,14.0,27,0.00,,,0.00,41.000000,,2013-08-20 14:11:00,
2013-08-20 08:21:00,61.0,27.0,-100.00,NW,306,1.0,14.0,27,0.00,,,0.00,41.000000,,2013-08-20 14:21:00,
2013-08-20 08:32:00,61.0,27.0,-100.00,NW,306,1.0,14.0,27,0.00,,,0.00,41.000000,,2013-08-20 14:32:00,
2013-08-20 08:40:00,63.0,29.0,-100.00,NNW,347,0.0,4.0,27,0.00,,,0.00,96.000000,,2013-08-20 14:40:00,
2013-08-20 09:11:00,63.0,29.0,-100.00,NNW,347,0.0,4.0,27,0.00,,,0.00,96.000000,,2013-08-20 15:11:00,
2013-08-20 09:22:00,63.0,29.0,-100.00,NNW,347,0.0,4.0,27,0.00,,,0.00,96.000000,,2013-08-20 15:22:00,
2013-08-20 09:34:00,63.0,29.0,-100.00,NNW,347,0.0,4.0,27,0.00,,,0.00,96.000000,,2013-08-20 15:34:00,
2013-08-20 09:40:00,72.0,26.0,-100.00,NNW,345,2.0,4.0,18,0.00,,,0.00,491.000000,,2013-08-20 15:40:00,
2013-08-20 10:31:00,-999.0,-99.9,-100.00,NNW,345,2.0,4.0,18,0.00,,,0.00,491.000000,,2013-08-20 16:31:00,
2013-08-20 10:40:00,75.0,27.0,-100.00,WSW,255,2.0,7.0,17,-99.99,,,0.00,708.000000,,2013-08-20 16:40:00,
2013-08-20 11:40:00,74.0,25.0,-100.00,NNE,24,6.0,15.0,16,-99.99,,,0.00,895.000000,,2013-08-20 17:40:00,
2013-08-20 12:12:00,74.0,25.0,-100.00,NNE,24,6.0,15.0,16,-99.99,,,0.00,895.000000,,2013-08-20 18:12:00,
2013-08-20 12:22:00,74.0,25.0,-100.00,NNE,24,6.0,15.0,16,-99.99,,,0.00,895.000000,,2013-08-20 18:22:00,
2013-08-20 12:33:00,74.0,25.0,-100.00,NNE,24,6.0,15.0,16,-99.99,,,0.00,895.000000,,2013-08-20 18:33:00,
2013-08-20 12:40:00,75.0,26.0,-100.00,East,83,5.0,14.0,16,0.00,,,0.00,1011.000000,,2013-08-20 18:40:00,
2013-08-20 13:11:00,75.0,26.0,-100.00,East,83,5.0,14.0,16,0.00,,,0.00,1011.000000,,2013-08-20 19:11:00,
2013-08-20 13:21:00,75.0,26.0,-100.00,East,83,5.0,14.0,16,0.00,,,0.00,1011.000000,,2013-08-20 19:21:00,
2013-08-20 13:32:00,75.0,26.0,-100.00,East,83,5.0,14.0,16,0.00,,,0.00,1011.000000,,2013-08-20 19:32:00,
2013-08-20 13:40:00,77.0,26.0,-100.00,SSW,212,4.0,14.0,15,0.00,,,0.00,1064.000000,,2013-08-20 19:40:00,
2013-08-20 14:12:00,77.0,26.0,-100.00,SSW,212,4.0,14.0,15,0.00,,,0.00,1064.000000,,2013-08-20 20:12:00,
2013-08-20 14:40:00,76.0,28.0,-100.00,ENE,68,6.0,15.0,17,0.00,,,0.00,977.000000,,2013-08-20 20:40:00,
2013-08-20 15:11:00,76.0,28.0,-100.00,ENE,68,6.0,15.0,17,0.00,,,0.00,977.000000,,2013-08-20 21:11:00,
2013-08-20 15:22:00,76.0,28.0,-100.00,ENE,68,6.0,15.0,17,0.00,,,0.00,977.000000,,2013-08-20 21:22:00,
2013-08-20 15:34:00,76.0,28.0,-100.00,ENE,68,6.0,15.0,17,0.00,,,0.00,977.000000,,2013-08-20 21:34:00,
2013-08-20 15:40:00,75.0,27.0,-100.00,ENE,74,4.0,15.0,17,0.00,,,0.00,588.000000,,2013-08-20 21:40:00,
2013-08-20 16:24:00,75.0,27.0,-100.00,ENE,74,4.0,15.0,17,0.00,,,0.00,588.000000,,2013-08-20 22:24:00,
2013-08-20 16:33:00,75.0,27.0,-100.00,ENE,74,4.0,15.0,17,0.00,,,0.00,588.000000,,2013-08-20 22:33:00,
2013-08-20 16:40:00,77.0,27.0,-100.00,NNE,15,4.0,12.0,16,0.00,,,0.00,752.000000,,2013-08-20 22:40:00,
2013-08-20 17:12:00,77.0,27.0,-100.00,NNE,15,4.0,12.0,16,0.00,,,0.00,752.000000,,2013-08-20 23:12:00,
2013-08-20 17:22:00,77.0,27.0,-100.00,NNE,15,4.0,12.0,16,0.00,,,0.00,752.000000,,2013-08-20 23:22:00,
2013-08-20 17:33:00,77.0,27.0,-100.00,NNE,15,4.0,12.0,16,0.00,,,0.00,752.000000,,2013-08-20 23:33:00,
2013-08-20 17:40:00,75.0,29.0,-100.00,East,82,3.0,11.0,18,0.00,,,0.00,428.000000,,2013-08-20 23:40:00,
2013-08-20 18:12:00,75.0,29.0,-100.00,East,82,3.0,11.0,18,0.00,,,0.00,428.000000,,2013-08-21 00:12:00,
2013-08-20 18:22:00,75.0,29.0,-100.00,East,82,3.0,11.0,18,0.00,,,0.00,428.000000,,2013-08-21 00:22:00,
2013-08-20 18:32:00,75.0,29.0,-100.00,East,82,3.0,11.0,18,0.00,,,0.00,428.000000,,2013-08-21 00:32:00,
2013-08-20 18:40:00,71.0,30.0,-100.00,WNW,302,3.0,9.0,22,0.00,,,0.00,177.000000,,2013-08-21 00:40:00,
2013-08-20 19:11:00,71.0,30.0,-100.00,WNW,302,3.0,9.0,22,0.00,,,0.00,177.000000,,2013-08-21 01:11:00,
2013-08-20 19:21:00,71.0,30.0,-100.00,WNW,302,3.0,9.0,22,0.00,,,0.00,177.000000,,2013-08-21 01:21:00,
2013-08-20 19:32:00,71.0,30.0,-100.00,WNW,302,3.0,9.0,22,0.00,,,0.00,177.000000,,2013-08-21 01:32:00,
2013-08-20 19:40:00,67.0,31.0,-100.00,North,359,0.0,6.0,26,0.00,,,0.00,96.000000,,2013-08-21 01:40:00,
2013-08-20 20:12:00,67.0,31.0,-100.00,North,359,0.0,6.0,26,0.00,,,0.00,96.000000,,2013-08-21 02:12:00,
2013-08-20 20:22:00,67.0,31.0,-100.00,North,359,0.0,6.0,26,0.00,,,0.00,96.000000,,2013-08-21 02:22:00,
2013-08-20 20:32:00,67.0,31.0,-100.00,North,359,0.0,6.0,26,0.00,,,0.00,96.000000,,2013-08-21 02:32:00,
2013-08-20 20:40:00,61.0,29.0,-100.00,SSE,159,0.0,4.0,29,0.00,,,0.00,11.000000,,2013-08-21 02:40:00,
2013-08-20 21:12:00,61.0,29.0,-100.00,SSE,159,0.0,4.0,29,0.00,,,0.00,11.000000,,2013-08-21 03:12:00,
2013-08-20 21:22:00,61.0,29.0,-100.00,SSE,159,0.0,4.0,29,0.00,,,0.00,11.000000,,2013-08-21 03:22:00,
2013-08-20 21:35:00,61.0,29.0,-100.00,SSE,159,0.0,4.0,29,0.00,,,0.00,11.000000,,2013-08-21 03:35:00,
2013-08-20 21:40:00,59.0,27.0,-100.00,SW,224,1.0,3.0,29,0.00,,,0.00,0.000000,,2013-08-21 03:40:00,
2013-08-20 22:13:00,59.0,27.0,-100.00,SW,224,1.0,3.0,29,0.00,,,0.00,0.000000,,2013-08-21 04:13:00,
2013-08-20 22:24:00,59.0,27.0,-100.00,SW,224,1.0,3.0,29,0.00,,,0.00,0.000000,,2013-08-21 04:24:00,
2013-08-20 22:33:00,59.0,27.0,-100.00,SW,224,1.0,3.0,29,0.00,,,0.00,0.000000,,2013-08-21 04:33:00,
2013-08-20 22:40:00,61.0,30.0,-100.00,SSW,196,6.0,9.0,31,0.00,,,0.00,0.000000,,2013-08-21 04:40:00,
2013-08-20 23:12:00,61.0,30.0,-100.00,SSW,196,6.0,9.0,31,0.00,,,0.00,0.000000,,2013-08-21 05:12:00,
2013-08-20 23:22:00,61.0,30.0,-100.00,SSW,196,6.0,9.0,31,0.00,,,0.00,0.000000,,2013-08-21 05:22:00,
2013-08-20 23:33:00,61.0,30.0,-100.00,SSW,196,6.0,9.0,31,0.00,,,0.00,0.000000,,2013-08-21 05:33:00,
2013-08-20 23:40:00,64.0,29.0,-100.00,SW,234,9.0,12.0,27,0.00,,,0.00,0.000000,,2013-08-21 05:40:00,